This is the latest recevied weather packets stored in our database for station/object WX4LTG. If no packets are shown the sender has not sent any weather packets the latest 10 day(s).
| Time | Temp. | Humidity | Pressure | Rain* | Wind** | Luminosity | Snow |
|---|---|---|---|---|---|---|---|
| 1777775639 | 30° C | 18% | 1009.4 hPa | 0 mm | - | 0 W/m² | - |
| 1777775336 | 30.56° C | 17% | 1009.1 hPa | 0 mm | - | 0 W/m² | - |
| 1777775035 | 30° C | 17% | 1009.3 hPa | 0 mm | - | 0 W/m² | - |
| 1777774732 | 30.56° C | 17% | 1009.2 hPa | 0 mm | - | 1 W/m² | - |
| 1777774429 | 31.11° C | 17% | 1009.4 hPa | 0 mm | - | 2 W/m² | - |
| 1777774126 | 31.11° C | 16% | 1009.1 hPa | 0 mm | - | 4 W/m² | - |
| 1777773824 | 31.11° C | 16% | 1009.3 hPa | 0 mm | - | 6 W/m² | - |
| 1777773520 | 31.11° C | 16% | 1009.2 hPa | 0 mm | - | 9 W/m² | - |
| 1777773217 | 31.11° C | 16% | 1009.2 hPa | 0 mm | - | 13 W/m² | - |
| 1777772913 | 31.67° C | 16% | 1009.2 hPa | 0 mm | - | 17 W/m² | - |
| 1777772611 | 31.67° C | 16% | 1009.2 hPa | 0 mm | - | 22 W/m² | - |
| 1777772308 | 31.67° C | 16% | 1009.2 hPa | 0 mm | - | 30 W/m² | - |
| 1777772005 | 32.22° C | 16% | 1009.3 hPa | 0 mm | - | 38 W/m² | - |
| 1777771702 | 32.22° C | 16% | 1009.2 hPa | 0 mm | - | 53 W/m² | - |
| 1777771400 | 32.22° C | 16% | 1009.3 hPa | 0 mm | - | 58 W/m² | - |
| 1777771096 | 32.22° C | 16% | 1009.5 hPa | 0 mm | - | 55 W/m² | - |
| 1777770793 | 32.22° C | 17% | 1009.5 hPa | 0 mm | - | 59 W/m² | - |
| 1777770489 | 32.22° C | 15% | 1009.6 hPa | 0 mm | - | 69 W/m² | - |
| 1777770187 | 32.22° C | 15% | 1009.2 hPa | 0 mm | - | 76 W/m² | - |
| 1777769884 | 32.22° C | 15% | 1009.5 hPa | 0 mm | - | 99 W/m² | - |
| 1777769581 | 32.22° C | 15% | 1009.6 hPa | 0 mm | - | 86 W/m² | - |
| 1777769277 | 32.78° C | 16% | 1009.4 hPa | 0 mm | - | 118 W/m² | - |
| 1777768975 | 32.78° C | 15% | 1009.5 hPa | 0 mm | - | 141 W/m² | - |
| 1777768672 | 33.33° C | 16% | 1009.7 hPa | 0 mm | - | 193 W/m² | - |
| 1777768369 | 32.78° C | 15% | 1009.3 hPa | 0 mm | - | 137 W/m² | - |
* Rain latest hour (hover to see other rain measurements)
** Current wind speed in m/s (hover to see current wind gust speed)